map of IDA home
IDA - Airport
Location
City:  Idaho Falls, Idaho, United States
Name:Idaho Falls Regional
ICAO:KIDA
IATA:IDA
FAA LID:IDA

Details
Type:Airport (Part 139 Class I)
Use:Public/Civil
Latitude:4330'49"N (43.513722)
Longitude:11204'15"W (-112.070749)
Datum:WGS 1984
Elevation:4743 ft (1446 m)
Variation:11.86E (WMM2015 magnetic declination)
-0.11 annual change
Runways:2
Longest:9002 × 150 ft (2744 × 45.5 m), paved

Time
Time Zone:UTC-7 (DST-6)
Local Time:

Weather
METAR:KIDA 180953Z AUTO 34006KT 10SM CLR 12/11 A3019 RMK AO2 SLP180 T01170106
TAF:KIDA 180907Z 1809/1906 01006KT P6SM SKC
FM181900 21011KT P6SM FEW100

Related Locations
Nearby:
Farthest:RRG: 10772 mi / 17336 km
Plaine Corail [Sir Gatan Duval Airport (Plaine Corail Airport)], Rodrigues Island, MU

Find:

   beyond  
but within

Other Information
Maps:
Delays:
NOTAMs:
Links:
Sources:

  
  • flag of United States
  • flag of Idaho
  

Airport Diagram

Airport diagram for IDA

Airport diagram PDF

Sectional Chart

Flight Planning
at skyvector.com

Satellite Image

Google Maps Satellite view

 

Copyright © 2004-2018 Karl L. Swartz. All rights reserved.
The Great Circle Mapper name and logo are trademarks of the Great Circle Mapper.
All other trademarks mentioned herein belong to their respective owners.
Please see credits for attibutions and further copyright information.

  Follow gcmap on Facebook Follow gcmap on Twitter Follow gcmap on Google+ GCmap on LinkedIn

hCard Microformat

Geo Microformat